Time;durP1;ratioP1;P1;durP2;ratioP2;P2;SDS_P1;SDS_P2;PMS_P1;PMS_P2;Temp;Humidity;BMP_temperature;BMP_pressure;BME280_temperature;BME280_humidity;BME280_pressure;Samples;Min_cycle;Max_cycle;Signal;HPM_P1;HPM_P2
2022/06/23 00:01:42;;;;;;;0.10;0.10;;;20.50;99.90;21.10;101036.00;;;;5118717;27;20183;-67
2022/06/23 00:04:14;;;;;;;0.20;0.20;;;20.60;99.90;20.90;101030.00;;;;5118682;27;20188;-67
2022/06/23 00:06:58;;;;;;;0.10;0.10;;;20.50;99.90;20.80;101026.00;;;;5118113;27;20179;-66
2022/06/23 00:10:02;;;;;;;0.10;0.10;;;20.50;99.90;20.50;101033.00;;;;5118324;27;20273;-66
2022/06/23 00:12:45;;;;;;;0.10;0.10;;;20.40;99.90;20.80;101032.00;;;;5118516;27;20201;-66
2022/06/23 00:15:37;;;;;;;0.10;0.10;;;20.30;99.90;20.60;101028.00;;;;5118280;27;20270;-66
2022/06/23 00:18:26;;;;;;;0.30;0.20;;;20.40;99.90;20.70;101005.00;;;;5117923;27;20183;-66
2022/06/23 00:21:11;;;;;;;0.20;0.20;;;20.40;99.90;21.10;101035.00;;;;5101379;27;20222;-66
2022/06/23 00:23:41;;;;;;;0.10;0.10;;;20.40;99.90;21.30;101043.00;;;;5118393;27;20178;-67
2022/06/23 00:26:15;;;;;;;0.10;0.10;;;20.60;99.90;20.90;101043.00;;;;5118180;27;20205;-66
2022/06/23 00:29:05;;;;;;;0.10;0.10;;;20.50;99.90;21.20;101050.00;;;;5118076;27;20186;-66
2022/06/23 00:31:39;;;;;;;0.20;0.20;;;20.50;99.90;21.40;101053.00;;;;5118161;27;20214;-66
2022/06/23 00:34:33;;;;;;;0.10;0.10;;;20.70;99.90;21.00;101038.00;;;;5136308;27;20175;-66
2022/06/23 00:37:09;;;;;;;0.43;0.43;;;20.60;99.90;20.90;101041.00;;;;5117679;27;20755;-67
2022/06/23 00:39:54;;;;;;;0.20;0.20;;;20.60;99.90;20.60;101040.00;;;;5117919;27;20182;-67
2022/06/23 00:42:34;;;;;;;0.10;0.10;;;20.40;99.90;20.90;101033.00;;;;5118012;27;20244;-66
2022/06/23 00:45:10;;;;;;;0.30;0.30;;;20.40;99.90;20.70;101031.00;;;;5118052;27;20267;-66
2022/06/23 00:47:47;;;;;;;1.02;0.93;;;20.40;99.90;20.50;101026.00;;;;5117540;27;20178;-67
2022/06/23 00:51:01;;;;;;;0.57;0.57;;;20.30;99.90;20.70;101029.00;;;;5118051;27;20191;-67
2022/06/23 00:53:53;;;;;;;0.10;0.10;;;20.30;99.90;21.00;101036.00;;;;5114706;27;20195;-66
2022/06/23 00:57:35;;;;;;;0.30;0.30;;;20.40;99.90;20.90;101042.00;;;;5116816;27;20182;-66
2022/06/23 01:00:23;;;;;;;0.10;0.10;;;20.50;99.90;21.10;101054.00;;;;5052606;28;20636;-66
2022/06/23 01:03:21;;;;;;;0.28;0.28;;;20.50;99.90;21.30;101053.00;;;;5035545;28;20194;-67
2022/06/23 01:06:27;;;;;;;0.10;0.10;;;20.60;99.90;21.40;101063.00;;;;5103859;27;20273;-67
2022/06/23 01:09:04;;;;;;;0.10;0.10;;;20.60;99.90;21.80;101066.00;;;;5117041;27;20206;-67
2022/06/23 01:11:41;;;;;;;0.50;0.32;;;20.80;99.90;20.80;101065.00;;;;5117293;27;20195;-67
2022/06/23 01:14:34;;;;;;;0.10;0.10;;;20.60;99.90;21.30;101038.00;;;;5117563;27;20167;-67
2022/06/23 01:17:33;;;;;;;0.10;0.10;;;20.60;99.90;21.00;101062.00;;;;5117963;27;20213;-67
2022/06/23 01:20:13;;;;;;;0.20;0.20;;;20.50;99.90;21.40;101069.00;;;;5116990;27;20673;-67
2022/06/23 01:22:51;;;;;;;1.30;0.55;;;20.50;99.90;21.20;101066.00;;;;5116735;27;20637;-67
2022/06/23 01:25:31;;;;;;;0.10;0.10;;;20.50;99.90;21.30;101061.00;;;;5117363;27;20306;-66
2022/06/23 01:28:13;;;;;;;0.20;0.20;;;20.50;99.90;21.70;101069.00;;;;5117198;27;20178;-66
2022/06/23 01:31:03;;;;;;;0.10;0.10;;;20.70;99.90;21.50;101066.00;;;;5135370;27;20199;-67
2022/06/23 01:33:43;;;;;;;0.10;0.10;;;20.70;99.90;21.30;101073.00;;;;5117045;27;20531;-66
2022/06/23 01:36:38;;;;;;;1.10;0.57;;;20.60;99.90;21.20;101066.00;;;;5117020;27;20197;-67
2022/06/23 01:39:25;;;;;;;0.10;0.10;;;20.50;99.90;20.90;101062.00;;;;5080374;27;20573;-67
2022/06/23 01:42:18;;;;;;;0.10;0.10;;;20.40;99.90;21.10;101072.00;;;;5116964;27;20649;-67
2022/06/23 01:45:10;;;;;;;0.20;0.20;;;20.50;99.90;21.50;101066.00;;;;5116632;27;20179;-67
2022/06/23 01:47:48;;;;;;;0.10;0.10;;;20.50;99.90;21.50;101071.00;;;;5116745;27;20257;-67
2022/06/23 01:50:40;;;;;;;0.10;0.10;;;20.50;99.90;21.90;101079.00;;;;5116749;27;20281;-67
2022/06/23 01:53:29;;;;;;;0.20;0.20;;;20.80;99.90;21.50;101077.00;;;;5116770;27;20286;-67
2022/06/23 01:56:05;;;;;;;0.40;0.40;;;20.80;99.90;21.50;101065.00;;;;5116488;27;20181;-67
2022/06/23 01:59:21;;;;;;;0.75;0.75;;;20.70;99.90;21.40;101062.00;;;;5116373;27;20185;-67
2022/06/23 02:02:18;;;;;;;0.20;0.20;;;20.70;99.90;21.80;101069.00;;;;5115881;27;20554;-67
2022/06/23 02:05:03;;;;;;;0.20;0.20;;;20.80;99.90;22.00;101073.00;;;;5116312;27;20185;-67
2022/06/23 02:08:34;;;;;;;0.10;0.10;;;21.00;99.90;21.80;101056.00;;;;5134677;27;20728;-67
2022/06/23 02:11:45;;;;;;;0.10;0.10;;;20.80;99.90;21.90;101062.00;;;;5100479;27;20671;-67
2022/06/23 02:14:44;;;;;;;0.20;0.20;;;20.90;99.90;22.10;101067.00;;;;5134097;27;20186;-67
2022/06/23 02:17:51;;;;;;;0.10;0.10;;;21.10;99.90;22.20;101069.00;;;;5116420;27;20169;-67
2022/06/23 02:23:57;;;;;;;0.10;0.10;;;21.10;99.90;21.50;101054.00;;;;5134785;27;20195;-67
2022/06/23 02:26:40;;;;;;;0.10;0.10;;;20.80;99.90;21.20;101041.00;;;;5116188;27;20578;-67
2022/06/23 02:29:26;;;;;;;0.10;0.10;;;20.60;99.90;21.00;101043.00;;;;5115881;27;20533;-67
2022/06/23 02:32:19;;;;;;;0.10;0.10;;;20.40;99.90;21.40;101036.00;;;;5134401;28;20195;-67
2022/06/23 02:35:13;;;;;;;0.10;0.10;;;20.40;99.90;20.90;101026.00;;;;5116014;28;20199;-67
2022/06/23 02:38:11;;;;;;;0.27;0.27;;;20.30;99.90;20.90;100989.00;;;;5116035;28;20187;-67
2022/06/23 02:40:58;;;;;;;0.20;0.20;;;20.20;99.90;20.70;101014.00;;;;5134754;28;20181;-67
2022/06/23 02:43:46;;;;;;;0.30;0.30;;;20.10;99.90;21.30;101023.00;;;;5115865;28;20185;-66
2022/06/23 02:47:06;;;;;;;0.10;0.10;;;20.20;99.90;21.00;101012.00;;;;5134693;27;20181;-67
2022/06/23 02:49:50;;;;;;;3.37;0.93;;;20.20;99.90;20.70;100964.00;;;;5115750;28;20181;-67
2022/06/23 02:52:34;;;;;;;0.10;0.10;;;20.10;99.90;20.20;100986.00;;;;5133965;28;20682;-67
2022/06/23 02:55:21;;;;;;;0.33;0.33;;;19.90;99.90;20.00;100973.00;;;;5134048;28;20176;-66
2022/06/23 02:58:19;;;;;;;0.30;0.30;;;19.60;99.90;20.30;100971.00;;;;5115654;28;20188;-67
2022/06/23 03:01:10;;;;;;;1.43;1.33;;;19.60;99.90;20.40;100982.00;;;;5115705;28;20191;-67
2022/06/23 03:03:40;;;;;;;0.30;0.30;;;19.60;99.90;20.20;100981.00;;;;5116178;28;20321;-67
2022/06/23 03:06:25;;;;;;;0.57;0.57;;;19.70;99.90;20.50;100971.00;;;;5115683;28;20173;-66
2022/06/23 03:09:14;;;;;;;0.50;0.50;;;19.60;99.90;19.70;100916.00;;;;5114415;28;20187;-66
2022/06/23 03:11:56;;;;;;;0.20;0.20;;;19.40;99.90;19.70;100942.00;;;;5111934;28;20202;-66
2022/06/23 03:15:11;;;;;;;0.10;0.10;;;19.30;99.90;20.00;100944.00;;;;5095200;28;20180;-66
2022/06/23 03:18:02;;;;;;;0.40;0.40;;;19.40;99.90;20.10;100947.00;;;;5077381;28;20211;-66
2022/06/23 03:21:03;;;;;;;0.10;0.10;;;19.50;99.90;20.20;100953.00;;;;5082120;28;20543;-66
2022/06/23 03:23:54;;;;;;;1.03;0.97;;;19.60;99.90;20.30;100959.00;;;;5092985;28;20247;-66
2022/06/23 03:26:33;;;;;;;4.40;1.73;;;19.60;99.90;20.30;100975.00;;;;5117208;28;20184;-66
2022/06/23 03:29:10;;;;;;;0.10;0.10;;;19.60;99.90;20.60;100972.00;;;;5099222;28;20175;-66
2022/06/23 03:32:27;;;;;;;0.73;0.60;;;19.70;99.90;20.80;100973.00;;;;5098521;28;20607;-66
2022/06/23 03:35:46;;;;;;;0.33;0.33;;;19.70;99.90;21.00;100985.00;;;;5098923;28;20171;-66
2022/06/23 03:41:56;;;;;;;0.10;0.10;;;19.80;99.90;20.70;100967.00;;;;5034119;28;20242;-65
2022/06/23 03:44:59;;;;;;;0.50;0.50;;;19.70;99.90;20.20;100938.00;;;;5034086;28;20203;-65
2022/06/23 03:47:53;;;;;;;0.13;0.13;;;19.70;99.90;20.70;100975.00;;;;5116657;28;20205;-65
2022/06/23 03:50:27;;;;;;;0.50;0.50;;;19.60;99.90;20.50;100982.00;;;;5116644;28;20181;-65
2022/06/23 03:53:17;;;;;;;0.10;0.10;;;19.60;99.90;20.50;100984.00;;;;5116626;28;20219;-66
2022/06/23 03:56:12;;;;;;;0.20;0.20;;;19.70;99.90;20.60;100979.00;;;;5116443;28;20196;-66
2022/06/23 03:59:15;;;;;;;0.10;0.10;;;19.70;99.90;20.90;100953.00;;;;5098372;28;20178;-66
2022/06/23 04:02:02;;;;;;;0.10;0.10;;;19.90;99.90;20.40;100940.00;;;;5085112;28;20229;-65
2022/06/23 04:05:10;;;;;;;0.10;0.10;;;19.70;99.90;20.20;100957.00;;;;5116362;28;20196;-66
2022/06/23 04:07:51;;;;;;;0.10;0.10;;;19.50;99.90;20.50;100964.00;;;;5098474;28;20177;-66
2022/06/23 04:10:36;;;;;;;0.20;0.20;;;19.60;99.90;20.50;100977.00;;;;5098307;28;20180;-66
2022/06/23 04:13:21;;;;;;;0.10;0.10;;;19.70;99.90;20.90;100974.00;;;;5097809;28;20202;-66
2022/06/23 04:15:52;;;;;;;0.63;0.63;;;19.80;99.90;20.80;100932.00;;;;5115946;28;20182;-66
2022/06/23 04:18:30;;;;;;;0.20;0.20;;;19.80;99.90;20.90;100942.00;;;;5098120;28;20209;-66
2022/06/23 04:21:18;;;;;;;0.60;0.60;;;19.90;99.90;20.60;100960.00;;;;5098416;28;20185;-66
2022/06/23 04:24:20;;;;;;;0.10;0.10;;;20.00;99.90;20.90;100984.00;;;;5097537;28;20175;-66
2022/06/23 04:27:05;;;;;;;0.25;0.25;;;19.90;99.90;21.30;100990.00;;;;5097471;28;20194;-66
2022/06/23 04:29:37;;;;;;;0.50;0.50;;;20.30;99.90;21.70;100987.00;;;;5115849;28;20567;-66
2022/06/23 04:32:24;;;;;;;0.10;0.10;;;20.70;99.90;22.40;101003.00;;;;5097947;28;20670;-66
2022/06/23 04:35:05;;;;;;;0.20;0.20;;;21.10;99.90;22.20;101009.00;;;;5097615;28;20175;-66
2022/06/23 04:37:39;;;;;;;0.35;0.35;;;21.20;99.90;22.30;101001.00;;;;5115301;28;20203;-66
2022/06/23 04:40:40;;;;;;;0.13;0.13;;;21.30;99.90;22.50;101014.00;;;;5097246;28;20324;-66
2022/06/23 04:44:00;;;;;;;0.10;0.10;;;21.50;99.90;23.00;101023.00;;;;5097429;28;20226;-66
2022/06/23 04:46:38;;;;;;;0.10;0.10;;;21.90;99.90;23.20;101043.00;;;;5074844;28;20561;-66
2022/06/23 04:49:51;;;;;;;0.10;0.10;;;22.20;99.90;23.40;101032.00;;;;5115433;28;20172;-66
2022/06/23 04:52:43;;;;;;;3.60;1.10;;;22.50;99.90;22.20;101030.00;;;;5097408;28;20206;-66
2022/06/23 04:55:34;;;;;;;1.20;1.20;;;22.20;99.90;24.10;101036.00;;;;5096933;28;20257;-66
2022/06/23 04:58:15;;;;;;;0.30;0.30;;;22.60;99.90;23.30;101041.00;;;;5087024;28;20197;-66
2022/06/23 05:00:49;;;;;;;0.10;0.10;;;22.70;99.90;23.50;101048.00;;;;5097155;28;20184;-66
2022/06/23 05:03:32;;;;;;;0.43;0.43;;;22.80;99.90;24.30;101047.00;;;;5097001;28;20179;-66
2022/06/23 05:06:37;;;;;;;0.60;0.43;;;23.10;99.90;23.70;101010.00;;;;5097644;28;20636;-66
2022/06/23 05:09:40;;;;;;;0.40;0.40;;;23.10;99.90;24.00;101043.00;;;;5096989;28;20186;-66
2022/06/23 05:12:25;;;;;;;0.38;0.38;;;23.20;99.90;25.30;101024.00;;;;5017174;28;20206;-66
2022/06/23 05:15:26;;;;;;;0.45;0.45;;;23.70;99.90;23.80;101049.00;;;;5096703;28;20179;-65
2022/06/23 05:18:21;;;;;;;0.43;0.30;;;23.20;99.90;24.40;101042.00;;;;5096579;28;20178;-65
2022/06/23 05:21:23;;;;;;;0.10;0.10;;;23.40;99.90;25.50;101044.00;;;;5087814;28;20278;-65
2022/06/23 05:24:02;;;;;;;0.10;0.10;;;24.20;99.90;26.40;101048.00;;;;5096325;28;20542;-65
2022/06/23 05:27:00;;;;;;;0.57;0.57;;;24.90;99.90;23.40;101032.00;;;;5096570;28;20175;-65
2022/06/23 05:29:55;;;;;;;0.10;0.10;;;23.90;99.90;25.30;101061.00;;;;5115092;28;20191;-65
2022/06/23 05:33:06;;;;;;;0.85;0.85;;;24.00;99.90;24.40;101056.00;;;;5067654;28;20310;-66
2022/06/23 05:35:59;;;;;;;1.20;1.20;;;24.00;99.90;24.00;101052.00;;;;5103941;28;20590;-66
2022/06/23 05:38:55;;;;;;;0.43;0.43;;;23.60;99.90;25.10;101018.00;;;;5095816;28;20268;-66
2022/06/23 05:41:36;;;;;;;0.10;0.10;;;23.70;99.90;25.60;101053.00;;;;5096206;28;20184;-66
2022/06/23 05:44:38;;;;;;;2.97;1.15;;;24.40;99.90;24.40;101054.00;;;;5096221;28;20172;-66
2022/06/23 05:47:11;;;;;;;0.10;0.10;;;24.30;99.90;25.60;101045.00;;;;5114254;28;20180;-66
2022/06/23 05:50:22;;;;;;;0.30;0.30;;;24.50;99.90;25.40;101057.00;;;;5096318;28;20168;-66
2022/06/23 05:53:41;;;;;;;0.50;0.50;;;24.40;99.90;26.50;101070.00;;;;5095914;28;20203;-66
2022/06/23 05:56:43;;;;;;;0.30;0.20;;;25.00;99.90;26.80;101064.00;;;;5030576;28;20731;-66
2022/06/23 05:59:56;;;;;;;1.15;0.80;;;25.60;99.90;27.50;101074.00;;;;5073458;28;20286;-67
2022/06/23 06:02:55;;;;;;;0.57;0.57;;;26.20;99.90;26.60;101074.00;;;;5086233;28;20200;-66
2022/06/23 06:05:36;;;;;;;0.10;0.10;;;25.70;99.90;27.10;101055.00;;;;5095872;28;20172;-66
2022/06/23 06:08:12;;;;;;;0.80;0.80;;;26.10;99.90;26.20;101081.00;;;;5095659;28;20670;-66
2022/06/23 06:11:04;;;;;;;0.10;0.10;;;25.80;99.90;27.30;101070.00;;;;5095706;28;20183;-66
2022/06/23 06:13:36;;;;;;;0.32;0.32;;;26.10;99.90;28.10;101080.00;;;;5114041;28;20184;-66
2022/06/23 06:16:07;;;;;;;0.25;0.25;;;26.40;99.90;27.10;101083.00;;;;5097984;27;20180;-66
2022/06/23 06:18:49;;;;;;;0.82;0.32;;;26.30;99.90;27.70;101058.00;;;;5095793;28;20287;-66
2022/06/23 06:21:23;;;;;;;0.28;0.28;;;26.30;99.90;28.50;101079.00;;;;5104113;27;20180;-66
2022/06/23 06:24:41;;;;;;;0.10;0.10;;;26.90;99.90;28.80;101058.00;;;;5116126;28;20171;-66
2022/06/23 06:27:15;;;;;;;0.25;0.25;;;27.60;99.90;27.50;101057.00;;;;5116469;28;20536;-66
2022/06/23 06:30:06;;;;;;;0.20;0.20;;;27.20;99.90;27.90;101054.00;;;;5116618;28;20210;-67
2022/06/23 06:32:50;;;;;;;0.98;0.90;;;27.40;99.90;28.80;101058.00;;;;5115794;28;20215;-67
2022/06/23 06:35:31;;;;;;;0.88;0.88;;;27.50;99.90;29.50;101033.00;;;;5116045;28;20175;-67
2022/06/23 06:38:21;;;;;;;0.35;0.35;;;28.10;99.90;29.50;101065.00;;;;5115522;28;20183;-67
2022/06/23 06:40:54;;;;;;;0.30;0.30;;;28.10;99.90;28.90;101054.00;;;;5104232;28;20219;-66
2022/06/23 06:44:00;;;;;;;0.50;0.50;;;27.90;99.90;27.40;101067.00;;;;5115824;28;20183;-66
2022/06/23 06:46:53;;;;;;;8.50;1.88;;;27.40;99.90;27.50;101077.00;;;;5113027;28;20283;-66
2022/06/23 06:50:02;;;;;;;0.10;0.10;;;26.70;99.90;29.00;101069.00;;;;5098916;28;20214;-66
2022/06/23 06:52:33;;;;;;;1.27;1.25;;;27.50;99.90;30.00;101066.00;;;;5116228;28;20175;-67
2022/06/23 06:55:15;;;;;;;0.63;0.63;;;28.30;99.90;28.40;101032.00;;;;5119774;27;20270;-66
2022/06/23 06:58:02;;;;;;;1.02;0.85;;;28.30;99.90;28.80;101066.00;;;;5119925;27;20263;-66
2022/06/23 07:01:36;;;;;;;0.10;0.10;;;27.90;99.90;29.40;101060.00;;;;5103126;27;20172;-66
2022/06/23 07:04:38;;;;;;;0.38;0.38;;;28.10;99.90;29.20;101062.00;;;;5032012;28;20197;-66
2022/06/23 07:07:34;;;;;;;0.10;0.10;;;29.20;99.90;29.80;101058.00;;;;5021591;28;20205;-65
2022/06/23 07:10:07;;;;;;;0.10;0.10;;;29.20;99.90;30.50;101064.00;;;;5033741;28;20202;-64
2022/06/23 07:13:03;;;;;;;2.03;1.95;;;29.50;99.90;29.50;101041.00;;;;5053311;28;20206;-65
2022/06/23 07:16:13;;;;;;;0.10;0.10;;;29.60;99.90;29.90;101070.00;;;;5037452;28;20201;-65
2022/06/23 07:19:14;;;;;;;0.17;0.15;;;29.10;99.90;29.00;101070.00;;;;5052849;28;20201;-65
2022/06/23 07:22:29;;;;;;;0.50;0.50;;;29.00;99.90;28.80;101071.00;;;;5052133;28;20264;-65
2022/06/23 07:25:19;;;;;;;0.95;0.73;;;28.90;99.90;28.20;101044.00;;;;5043288;28;20186;-65
2022/06/23 07:28:10;;;;;;;0.20;0.20;;;28.50;99.90;29.10;101069.00;;;;5053502;28;20300;-65
2022/06/23 07:31:06;;;;;;;0.40;0.40;;;28.40;99.90;29.50;101067.00;;;;5053862;28;20196;-65
2022/06/23 07:33:58;;;;;;;1.27;0.90;;;28.30;99.90;29.50;101060.00;;;;5018800;28;20304;-65
2022/06/23 07:37:11;;;;;;;0.20;0.20;;;28.80;99.90;29.00;101068.00;;;;5040932;28;20170;-65
2022/06/23 07:39:54;;;;;;;0.45;0.45;;;29.00;99.90;29.30;101059.00;;;;5104323;27;20242;-65
2022/06/23 07:42:56;;;;;;;1.60;1.55;;;28.90;99.90;28.90;101036.00;;;;5115878;28;20299;-64
2022/06/23 07:46:03;;;;;;;0.10;0.10;;;28.40;99.90;29.60;101068.00;;;;5098799;28;20183;-65
2022/06/23 07:48:35;;;;;;;0.10;0.10;;;29.10;99.90;29.80;101068.00;;;;5058663;28;20607;-65
2022/06/23 07:51:08;;;;;;;0.20;0.20;;;29.30;99.90;29.40;101075.00;;;;5098620;28;20664;-65
2022/06/23 07:54:01;;;;;;;1.38;1.27;;;28.90;99.90;30.40;101080.00;;;;5115743;28;20658;-65
2022/06/23 07:57:11;;;;;;;0.38;0.38;;;29.40;99.90;31.30;101058.00;;;;5089027;28;20201;-65
2022/06/23 08:00:06;;;;;;;0.40;0.40;;;30.50;99.90;29.40;101079.00;;;;5068859;28;20244;-65
2022/06/23 08:02:44;;;;;;;0.10;0.10;;;29.80;99.90;29.40;101077.00;;;;5114086;28;20192;-65
2022/06/23 08:05:37;;;;;;;1.30;1.15;;;29.50;99.90;30.70;101081.00;;;;5114748;28;20267;-65
2022/06/23 08:08:18;;;;;;;0.47;0.30;;;29.60;99.90;29.60;101047.00;;;;5115136;28;20180;-71
2022/06/23 08:13:52;;;;;;;0.40;0.40;;;28.90;99.90;28.60;101063.00;;;;5116006;28;20679;-65
2022/06/23 08:19:15;;;;;;;0.20;0.20;;;29.40;99.90;30.90;101075.00;;;;5115240;28;20271;-65
2022/06/23 08:22:17;;;;;;;0.20;0.20;;;29.80;99.90;32.00;101084.00;;;;5114888;28;20292;-66
2022/06/23 08:24:48;;;;;;;1.48;0.68;;;30.50;99.90;31.00;101070.00;;;;5080825;28;20194;-66
2022/06/23 08:27:20;;;;;;;0.82;0.30;;;30.50;99.90;32.90;101086.00;;;;5116179;28;20258;-66
2022/06/23 08:30:17;;;;;;;0.20;0.20;;;31.30;99.90;30.30;101069.00;;;;5097998;28;20654;-65
2022/06/23 08:32:49;;;;;;;0.30;0.30;;;30.10;99.90;30.30;101072.00;;;;5086372;28;20207;-66
2022/06/23 08:35:48;;;;;;;1.85;0.93;;;29.70;99.90;28.70;101055.00;;;;5101851;27;20180;-66
2022/06/23 08:38:44;;;;;;;0.73;0.63;;;28.80;99.90;28.50;101014.00;;;;5111453;27;20175;-66
2022/06/23 08:41:24;;;;;;;1.67;1.10;;;28.10;99.90;28.80;101043.00;;;;5108576;27;20183;-66
2022/06/23 08:44:21;;;;;;;0.20;0.20;;;28.10;99.90;27.10;101009.00;;;;5136355;27;20183;-65
2022/06/23 08:47:28;;;;;;;0.28;0.28;;;27.20;99.90;26.70;100980.00;;;;5115499;27;20191;-65
2022/06/23 08:50:24;;;;;;;1.10;1.05;;;26.60;99.90;27.10;100974.00;;;;5116537;27;20214;-66
2022/06/23 08:53:38;;;;;;;1.38;1.27;;;26.40;99.90;28.30;101015.00;;;;5100636;27;20183;-65
2022/06/23 08:56:49;;;;;;;0.52;0.52;;;27.70;99.90;29.50;101032.00;;;;5117021;27;20187;-65
2022/06/23 08:59:36;;;;;;;0.63;0.52;;;28.30;99.90;28.50;101022.00;;;;5135330;27;20176;-65
2022/06/23 09:02:30;;;;;;;0.57;0.57;;;28.50;99.90;29.20;101035.00;;;;5116811;27;20290;-66
2022/06/23 09:05:02;;;;;;;1.50;1.13;;;28.70;99.90;29.10;101026.00;;;;5072183;27;20642;-66
2022/06/23 09:08:11;;;;;;;0.10;0.10;;;28.60;99.90;30.80;101054.00;;;;5117625;27;20187;-66
2022/06/23 09:11:09;;;;;;;0.35;0.35;;;29.60;99.90;31.00;101066.00;;;;5117616;27;20185;-66
2022/06/23 09:14:13;;;;;;;0.45;0.45;;;30.40;99.90;29.30;101042.00;;;;5135496;27;20242;-66
2022/06/23 09:17:01;;;;;;;0.20;0.20;;;29.00;99.90;27.70;100980.00;;;;5134331;27;20627;-66
2022/06/23 09:20:03;;;;;;;0.10;0.10;;;28.00;99.90;28.10;100991.00;;;;5117045;27;20248;-66
2022/06/23 09:23:06;;;;;;;0.50;0.50;;;27.40;99.90;28.50;101013.00;;;;5117605;27;20238;-66
2022/06/23 09:26:17;;;;;;;0.45;0.45;;;28.30;99.90;30.60;101026.00;;;;5135692;27;20187;-69
2022/06/23 09:29:56;;;;;;;0.10;0.10;;;29.30;99.90;31.60;101028.00;;;;5117119;27;20183;-64
2022/06/23 09:32:47;;;;;;;0.13;0.13;;;30.90;99.90;33.10;101048.00;;;;5101900;27;20212;-69
2022/06/23 09:35:59;;;;;;;2.63;2.35;;;32.20;99.90;31.10;101052.00;;;;5114714;27;20724;-69
2022/06/23 09:38:34;;;;;;;7.55;1.13;;;32.00;99.90;29.90;101043.00;;;;5113349;28;20176;-68
2022/06/23 09:41:57;;;;;;;3.97;2.30;;;30.30;99.90;29.10;101022.00;;;;5114723;28;20225;-68
2022/06/23 09:44:51;;;;;;;0.60;0.60;;;28.80;99.90;30.50;101041.00;;;;5036713;28;20744;-68
2022/06/23 09:48:08;;;;;;;1.75;0.80;;;29.50;99.90;29.40;101019.00;;;;5116672;27;20637;-65
2022/06/23 09:51:26;;;;;;;0.25;0.25;;;29.30;99.90;31.70;101050.00;;;;5113244;27;20566;-66
2022/06/23 09:54:41;;;;;;;0.55;0.55;;;30.20;99.90;30.30;101036.00;;;;5109214;27;20631;-65
2022/06/23 09:57:43;;;;;;;0.25;0.25;;;30.20;99.90;30.30;101035.00;;;;5114127;27;20190;-65
2022/06/23 10:01:22;;;;;;;0.32;0.32;;;30.00;99.90;33.30;101039.00;;;;5113290;27;20223;-66
2022/06/23 10:05:27;;;;;;;0.25;0.25;;;31.50;99.90;32.20;101036.00;;;;5101735;27;20282;-65
2022/06/23 10:08:35;;;;;;;0.10;0.10;;;32.00;99.90;33.60;101045.00;;;;5030327;28;20186;-65
2022/06/23 10:12:12;;;;;;;0.30;0.30;;;32.30;99.90;29.80;101030.00;;;;5047060;28;20194;-69
2022/06/23 10:15:07;;;;;;;0.75;0.75;;;31.10;99.90;30.50;101023.00;;;;4981896;28;20875;-64
2022/06/23 10:18:12;;;;;;;0.10;0.10;;;30.30;99.90;30.40;101025.00;;;;5029965;28;20290;-65
2022/06/23 10:33:54;;;;;;;0.52;0.52;;;31.00;99.90;32.30;101011.00;;;;5069540;27;20566;-67
2022/06/23 10:37:47;;;;;;;0.98;0.95;;;31.50;99.90;33.10;101036.00;;;;5067326;28;20546;-68
2022/06/23 10:41:07;;;;;;;1.65;1.55;;;32.20;99.90;32.80;101037.00;;;;5031976;28;20198;-65
2022/06/23 10:44:23;;;;;;;1.75;1.65;;;32.60;99.90;31.30;101013.00;;;;5031470;28;20186;-72
2022/06/23 10:47:36;;;;;;;0.68;0.68;;;31.20;99.90;31.60;101037.00;;;;4988971;28;20226;-71
2022/06/23 10:50:31;;;;;;;2.00;1.90;;;31.20;99.90;29.90;101016.00;;;;5031416;28;20701;-67
2022/06/23 10:53:44;;;;;;;0.20;0.20;;;30.50;99.90;29.90;101008.00;;;;5028530;28;20241;-67
2022/06/23 10:57:17;;;;;;;0.45;0.25;;;29.80;99.90;30.90;101009.00;;;;5021343;28;20183;-68
2022/06/23 11:00:04;;;;;;;1.05;0.88;;;29.80;99.90;33.20;101035.00;;;;5028827;28;20339;-66
2022/06/23 11:03:25;;;;;;;0.95;0.95;;;32.10;99.90;33.50;101030.00;;;;5041659;28;20332;-68
2022/06/23 11:06:48;;;;;;;0.30;0.30;;;32.80;99.90;33.30;101027.00;;;;5046929;27;20719;-70
2022/06/23 11:09:30;;;;;;;0.77;0.77;;;32.60;99.90;33.80;101026.00;;;;5027091;28;20654;-67
2022/06/23 11:12:35;;;;;;;0.17;0.17;;;33.10;99.90;32.70;101018.00;;;;5066768;28;20716;-68
2022/06/23 11:15:21;;;;;;;0.20;0.20;;;33.00;99.90;33.40;101009.00;;;;5069344;28;20245;-67
2022/06/23 11:18:31;;;;;;;0.57;0.57;;;32.80;99.90;33.10;101023.00;;;;5068304;28;20208;-67
2022/06/23 11:21:59;;;;;;;0.63;0.63;;;32.90;99.90;34.60;101012.00;;;;5069238;28;20170;-68
2022/06/23 11:24:33;;;;;;;0.10;0.10;;;33.40;99.90;34.90;101019.00;;;;5067503;28;20562;-68
2022/06/23 11:27:27;;;;;;;0.35;0.35;;;34.50;99.90;31.60;101012.00;;;;5067121;28;20632;-67
2022/06/23 11:30:12;;;;;;;2.35;2.25;;;32.40;99.90;31.50;101010.00;;;;5044201;28;20203;-68
2022/06/23 11:33:19;;;;;;;0.10;0.10;;;31.80;99.90;31.90;101009.00;;;;5048469;28;20217;-68
2022/06/23 11:36:17;;;;;;;3.45;1.95;;;31.60;99.90;30.60;100999.00;;;;5050169;28;20194;-68
2022/06/23 11:39:17;;;;;;;0.80;0.80;;;31.30;99.90;31.00;100975.00;;;;5049378;28;20179;-68
2022/06/23 11:42:07;;;;;;;0.20;0.20;;;30.80;99.90;31.40;100995.00;;;;5067547;28;20633;-68
2022/06/23 11:44:57;;;;;;;0.20;0.20;;;30.70;99.90;30.90;100992.00;;;;5043654;28;20540;-68
2022/06/23 11:48:02;;;;;;;0.15;0.15;;;30.40;99.90;32.50;100993.00;;;;5040911;28;20197;-68
2022/06/23 11:50:54;;;;;;;1.05;1.05;;;31.50;99.90;32.40;100993.00;;;;5034019;28;20183;-68
2022/06/23 11:53:57;;;;;;;0.70;0.70;;;32.00;99.90;31.70;100985.00;;;;5032434;28;20180;-72
2022/06/23 11:56:52;;;;;;;0.08;0.08;;;31.30;99.90;31.00;100960.00;;;;5033866;28;20269;-68
2022/06/23 12:00:10;;;;;;;0.80;0.80;;;30.80;99.90;31.10;100984.00;;;;5048953;28;20178;-71
2022/06/23 12:03:05;;;;;;;0.95;0.95;;;30.80;99.90;29.90;100965.00;;;;5067878;28;20623;-61
2022/06/23 12:06:21;;;;;;;0.10;0.10;;;29.70;99.90;31.10;100980.00;;;;5044703;28;20252;-69
2022/06/23 12:09:12;;;;;;;1.13;1.13;;;29.70;99.90;30.70;100978.00;;;;5055070;28;20181;-67
2022/06/23 12:11:51;;;;;;;0.52;0.52;;;29.90;99.90;30.30;100955.00;;;;5053634;28;20301;-67
2022/06/23 12:14:24;;;;;;;0.60;0.45;;;29.70;99.90;30.20;100985.00;;;;5056091;28;20192;-65
2022/06/23 12:17:44;;;;;;;0.35;0.35;;;29.50;99.90;29.90;100968.00;;;;5048150;28;20309;-64
2022/06/23 12:21:38;;;;;;;1.05;1.05;;;29.50;99.90;29.70;100972.00;;;;5029799;28;20273;-63
2022/06/23 12:24:39;;;;;;;0.30;0.30;;;29.30;99.90;29.40;100962.00;;;;5034501;28;20214;-66
2022/06/23 12:27:38;;;;;;;0.30;0.30;;;28.90;99.90;29.60;100949.00;;;;5044154;28;20209;-66
2022/06/23 12:30:36;;;;;;;2.22;1.55;;;28.80;99.90;28.90;100949.00;;;;5051535;28;20236;-68
2022/06/23 12:33:48;;;;;;;6.60;3.92;;;28.70;99.90;30.40;100952.00;;;;5052053;28;20237;-66
2022/06/23 12:36:28;;;;;;;0.40;0.40;;;29.00;99.90;30.60;100968.00;;;;5052573;28;20178;-67
2022/06/23 12:39:27;;;;;;;1.73;1.17;;;29.60;99.90;30.30;100957.00;;;;5036060;28;20305;-67
2022/06/23 12:42:02;;;;;;;0.35;0.35;;;29.50;99.90;30.70;100952.00;;;;5020889;28;20236;-68
2022/06/23 12:45:38;;;;;;;0.32;0.32;;;29.70;99.90;31.00;100957.00;;;;5040036;28;20221;-67
2022/06/23 12:48:55;;;;;;;;;;;;;;;;;;;;;
2022/06/23 12:51:51;;;;;;;0.35;0.35;;;29.30;99.90;30.40;100930.00;;;;4994455;28;20571;-68
2022/06/23 12:54:52;;;;;;;1.48;0.85;;;29.70;99.90;29.70;100937.00;;;;5030461;28;20187;-68
2022/06/23 12:58:05;;;;;;;0.47;0.43;;;29.20;99.90;29.70;100935.00;;;;5032508;28;20190;-68
2022/06/23 13:00:33;;;;;;;0.10;0.10;;;29.00;99.90;29.90;100932.00;;;;5040052;28;20182;-67
2022/06/23 13:03:57;;;;;;;1.92;1.50;;;29.10;99.90;30.50;100947.00;;;;5050405;28;20217;-69
2022/06/23 13:07:15;;;;;;;2.22;1.88;;;29.50;99.90;29.80;100950.00;;;;5018964;28;20209;-68
2022/06/23 13:10:00;;;;;;;0.55;0.55;;;29.40;99.90;30.20;100942.00;;;;5033021;28;20527;-67
2022/06/23 13:12:46;;;;;;;1.08;0.93;;;29.30;99.90;30.30;100913.00;;;;5016230;28;20622;-68
2022/06/23 13:15:55;;;;;;;0.65;0.43;;;29.30;99.90;30.10;100927.00;;;;5032697;28;20258;-68